sensor_id;sensor_type;location;lat;lon;timestamp;temperature;humidity
18103;DHT22;9178;51.120;6.192;2023-01-19T00:00:00;1.10;99.90
18103;DHT22;9178;51.120;6.192;2023-01-19T00:02:28;1.10;99.90
18103;DHT22;9178;51.120;6.192;2023-01-19T00:04:55;1.10;99.90
18103;DHT22;9178;51.120;6.192;2023-01-19T00:07:24;1.10;99.90
18103;DHT22;9178;51.120;6.192;2023-01-19T00:09:51;1.10;99.90
18103;DHT22;9178;51.120;6.192;2023-01-19T00:12:18;1.10;99.90
18103;DHT22;9178;51.120;6.192;2023-01-19T00:14:45;1.00;99.90
18103;DHT22;9178;51.120;6.192;2023-01-19T00:17:11;1.00;99.90
18103;DHT22;9178;51.120;6.192;2023-01-19T00:19:40;0.90;99.90
18103;DHT22;9178;51.120;6.192;2023-01-19T00:22:07;1.00;99.90
18103;DHT22;9178;51.120;6.192;2023-01-19T00:24:34;0.90;99.90
18103;DHT22;9178;51.120;6.192;2023-01-19T00:27:00;0.90;99.90
18103;DHT22;9178;51.120;6.192;2023-01-19T00:29:28;1.00;99.90
18103;DHT22;9178;51.120;6.192;2023-01-19T00:31:58;1.00;99.90
18103;DHT22;9178;51.120;6.192;2023-01-19T00:34:24;1.00;99.90
18103;DHT22;9178;51.120;6.192;2023-01-19T00:37:02;1.10;99.90
18103;DHT22;9178;51.120;6.192;2023-01-19T00:39:28;1.00;99.90
18103;DHT22;9178;51.120;6.192;2023-01-19T00:41:55;1.00;99.90
18103;DHT22;9178;51.120;6.192;2023-01-19T00:44:40;1.00;99.90
18103;DHT22;9178;51.120;6.192;2023-01-19T00:47:06;1.00;99.90
18103;DHT22;9178;51.120;6.192;2023-01-19T00:49:33;1.00;99.90
18103;DHT22;9178;51.120;6.192;2023-01-19T00:52:01;1.00;99.90
18103;DHT22;9178;51.120;6.192;2023-01-19T00:54:28;1.00;99.90
18103;DHT22;9178;51.120;6.192;2023-01-19T00:56:55;1.00;99.90
18103;DHT22;9178;51.120;6.192;2023-01-19T00:59:22;1.00;99.90
18103;DHT22;9178;51.120;6.192;2023-01-19T01:01:50;1.00;99.90
18103;DHT22;9178;51.120;6.192;2023-01-19T01:04:16;1.00;99.90
18103;DHT22;9178;51.120;6.192;2023-01-19T01:06:43;1.00;99.90
18103;DHT22;9178;51.120;6.192;2023-01-19T01:09:13;0.90;99.90
18103;DHT22;9178;51.120;6.192;2023-01-19T01:11:40;0.90;99.90
18103;DHT22;9178;51.120;6.192;2023-01-19T01:14:08;0.90;99.90
18103;DHT22;9178;51.120;6.192;2023-01-19T01:16:35;0.90;99.90
18103;DHT22;9178;51.120;6.192;2023-01-19T01:19:02;0.80;99.90
18103;DHT22;9178;51.120;6.192;2023-01-19T01:21:28;0.90;99.90
18103;DHT22;9178;51.120;6.192;2023-01-19T01:23:55;0.80;99.90
18103;DHT22;9178;51.120;6.192;2023-01-19T01:26:23;0.80;99.90
18103;DHT22;9178;51.120;6.192;2023-01-19T01:28:50;0.80;99.90
18103;DHT22;9178;51.120;6.192;2023-01-19T01:31:17;0.80;99.90
18103;DHT22;9178;51.120;6.192;2023-01-19T01:33:44;0.90;99.90
18103;DHT22;9178;51.120;6.192;2023-01-19T01:36:11;0.90;99.90
18103;DHT22;9178;51.120;6.192;2023-01-19T01:38:38;0.90;99.90
18103;DHT22;9178;51.120;6.192;2023-01-19T01:41:04;0.80;99.90
18103;DHT22;9178;51.120;6.192;2023-01-19T01:43:44;0.90;99.90
18103;DHT22;9178;51.120;6.192;2023-01-19T01:46:12;0.90;99.90
18103;DHT22;9178;51.120;6.192;2023-01-19T01:48:42;1.00;99.90
18103;DHT22;9178;51.120;6.192;2023-01-19T01:51:14;0.90;99.90
18103;DHT22;9178;51.120;6.192;2023-01-19T01:53:54;0.90;99.90
18103;DHT22;9178;51.120;6.192;2023-01-19T01:56:26;1.00;99.90
18103;DHT22;9178;51.120;6.192;2023-01-19T01:58:55;0.90;99.90
18103;DHT22;9178;51.120;6.192;2023-01-19T02:01:22;1.00;99.90
18103;DHT22;9178;51.120;6.192;2023-01-19T02:04:07;0.90;99.90
18103;DHT22;9178;51.120;6.192;2023-01-19T02:06:33;0.90;99.90
18103;DHT22;9178;51.120;6.192;2023-01-19T02:09:18;0.90;99.90
18103;DHT22;9178;51.120;6.192;2023-01-19T02:12:04;0.90;99.90
18103;DHT22;9178;51.120;6.192;2023-01-19T02:14:49;0.90;99.90
18103;DHT22;9178;51.120;6.192;2023-01-19T02:17:16;0.90;99.90
18103;DHT22;9178;51.120;6.192;2023-01-19T02:19:43;0.90;99.90
18103;DHT22;9178;51.120;6.192;2023-01-19T02:22:15;0.90;99.90
18103;DHT22;9178;51.120;6.192;2023-01-19T02:24:45;1.00;99.90
18103;DHT22;9178;51.120;6.192;2023-01-19T02:27:14;1.00;99.90
18103;DHT22;9178;51.120;6.192;2023-01-19T02:29:41;1.00;99.90
18103;DHT22;9178;51.120;6.192;2023-01-19T02:32:08;1.00;99.90
18103;DHT22;9178;51.120;6.192;2023-01-19T02:34:36;1.00;99.90
18103;DHT22;9178;51.120;6.192;2023-01-19T02:37:07;1.00;99.90
18103;DHT22;9178;51.120;6.192;2023-01-19T02:39:38;1.00;99.90
18103;DHT22;9178;51.120;6.192;2023-01-19T02:42:11;1.00;99.90
18103;DHT22;9178;51.120;6.192;2023-01-19T02:44:39;1.10;99.90
18103;DHT22;9178;51.120;6.192;2023-01-19T02:47:09;1.10;99.90
18103;DHT22;9178;51.120;6.192;2023-01-19T02:49:36;1.00;99.90
18103;DHT22;9178;51.120;6.192;2023-01-19T02:52:03;1.10;99.90
18103;DHT22;9178;51.120;6.192;2023-01-19T02:54:38;1.10;99.90
18103;DHT22;9178;51.120;6.192;2023-01-19T02:57:19;1.10;99.90
18103;DHT22;9178;51.120;6.192;2023-01-19T02:59:58;1.10;99.90
18103;DHT22;9178;51.120;6.192;2023-01-19T03:02:33;1.20;99.90
18103;DHT22;9178;51.120;6.192;2023-01-19T03:05:15;1.20;99.90
18103;DHT22;9178;51.120;6.192;2023-01-19T03:07:50;1.30;99.90
18103;DHT22;9178;51.120;6.192;2023-01-19T03:10:27;1.30;99.90
18103;DHT22;9178;51.120;6.192;2023-01-19T03:13:00;1.40;99.90
18103;DHT22;9178;51.120;6.192;2023-01-19T03:15:33;1.40;99.90
18103;DHT22;9178;51.120;6.192;2023-01-19T03:18:05;1.40;99.90
18103;DHT22;9178;51.120;6.192;2023-01-19T03:20:34;1.40;99.90
18103;DHT22;9178;51.120;6.192;2023-01-19T03:23:05;1.50;99.90
18103;DHT22;9178;51.120;6.192;2023-01-19T03:25:36;1.50;99.90
18103;DHT22;9178;51.120;6.192;2023-01-19T03:28:05;1.50;99.90
18103;DHT22;9178;51.120;6.192;2023-01-19T03:30:34;1.50;99.90
18103;DHT22;9178;51.120;6.192;2023-01-19T03:33:05;1.50;99.90
18103;DHT22;9178;51.120;6.192;2023-01-19T03:35:35;1.50;99.90
18103;DHT22;9178;51.120;6.192;2023-01-19T03:38:06;1.50;99.90
18103;DHT22;9178;51.120;6.192;2023-01-19T03:40:35;1.60;99.90
18103;DHT22;9178;51.120;6.192;2023-01-19T03:43:04;1.60;99.90
18103;DHT22;9178;51.120;6.192;2023-01-19T03:45:32;1.60;99.90
18103;DHT22;9178;51.120;6.192;2023-01-19T03:48:00;1.60;99.90
18103;DHT22;9178;51.120;6.192;2023-01-19T03:50:28;1.60;99.90
18103;DHT22;9178;51.120;6.192;2023-01-19T03:53:05;1.60;99.90
18103;DHT22;9178;51.120;6.192;2023-01-19T03:55:33;1.60;99.90
18103;DHT22;9178;51.120;6.192;2023-01-19T03:58:00;1.60;99.90
18103;DHT22;9178;51.120;6.192;2023-01-19T04:00:29;1.60;99.90
18103;DHT22;9178;51.120;6.192;2023-01-19T04:02:56;1.70;99.90
18103;DHT22;9178;51.120;6.192;2023-01-19T04:05:23;1.70;99.90
18103;DHT22;9178;51.120;6.192;2023-01-19T04:07:50;1.70;99.90
18103;DHT22;9178;51.120;6.192;2023-01-19T04:10:17;1.70;99.90
18103;DHT22;9178;51.120;6.192;2023-01-19T04:12:44;1.70;99.90
18103;DHT22;9178;51.120;6.192;2023-01-19T04:15:11;1.70;99.90
18103;DHT22;9178;51.120;6.192;2023-01-19T04:17:40;1.70;99.90
18103;DHT22;9178;51.120;6.192;2023-01-19T04:20:08;1.70;99.90
18103;DHT22;9178;51.120;6.192;2023-01-19T04:22:35;1.80;99.90
18103;DHT22;9178;51.120;6.192;2023-01-19T04:25:04;1.80;99.90
18103;DHT22;9178;51.120;6.192;2023-01-19T04:27:31;1.80;99.90
18103;DHT22;9178;51.120;6.192;2023-01-19T04:29:57;1.80;99.90
18103;DHT22;9178;51.120;6.192;2023-01-19T04:32:24;1.70;99.90
18103;DHT22;9178;51.120;6.192;2023-01-19T04:34:52;1.60;99.90
18103;DHT22;9178;51.120;6.192;2023-01-19T04:37:19;1.50;99.90
18103;DHT22;9178;51.120;6.192;2023-01-19T04:39:46;1.50;99.90
18103;DHT22;9178;51.120;6.192;2023-01-19T04:42:13;1.40;99.90
18103;DHT22;9178;51.120;6.192;2023-01-19T04:44:39;1.40;99.90
18103;DHT22;9178;51.120;6.192;2023-01-19T04:47:06;1.30;99.90
18103;DHT22;9178;51.120;6.192;2023-01-19T04:49:33;1.30;99.90
18103;DHT22;9178;51.120;6.192;2023-01-19T04:52:08;1.20;99.90
18103;DHT22;9178;51.120;6.192;2023-01-19T04:54:34;1.20;99.90
18103;DHT22;9178;51.120;6.192;2023-01-19T04:57:01;1.20;99.90
18103;DHT22;9178;51.120;6.192;2023-01-19T04:59:28;1.20;99.90
18103;DHT22;9178;51.120;6.192;2023-01-19T05:01:55;1.10;99.90
18103;DHT22;9178;51.120;6.192;2023-01-19T05:04:23;1.10;99.90
18103;DHT22;9178;51.120;6.192;2023-01-19T05:06:50;1.10;99.90
18103;DHT22;9178;51.120;6.192;2023-01-19T05:09:20;1.10;99.90
18103;DHT22;9178;51.120;6.192;2023-01-19T05:11:46;1.00;99.90
18103;DHT22;9178;51.120;6.192;2023-01-19T05:14:13;1.00;99.90
18103;DHT22;9178;51.120;6.192;2023-01-19T05:16:40;1.00;99.90
18103;DHT22;9178;51.120;6.192;2023-01-19T05:19:07;1.00;99.90
18103;DHT22;9178;51.120;6.192;2023-01-19T05:21:34;1.00;99.90
18103;DHT22;9178;51.120;6.192;2023-01-19T05:24:01;0.90;99.90
18103;DHT22;9178;51.120;6.192;2023-01-19T05:26:29;0.90;99.90
18103;DHT22;9178;51.120;6.192;2023-01-19T05:28:56;0.90;99.90
18103;DHT22;9178;51.120;6.192;2023-01-19T05:31:23;0.90;99.90
18103;DHT22;9178;51.120;6.192;2023-01-19T05:33:51;0.90;99.90
18103;DHT22;9178;51.120;6.192;2023-01-19T05:36:17;0.90;99.90
18103;DHT22;9178;51.120;6.192;2023-01-19T05:38:44;0.90;99.90
18103;DHT22;9178;51.120;6.192;2023-01-19T05:41:11;0.90;99.90
18103;DHT22;9178;51.120;6.192;2023-01-19T05:43:40;0.90;99.90
18103;DHT22;9178;51.120;6.192;2023-01-19T05:46:06;0.90;99.90
18103;DHT22;9178;51.120;6.192;2023-01-19T05:48:33;0.90;99.90
18103;DHT22;9178;51.120;6.192;2023-01-19T05:51:00;0.90;99.90
18103;DHT22;9178;51.120;6.192;2023-01-19T05:53:27;0.90;99.90
18103;DHT22;9178;51.120;6.192;2023-01-19T05:55:58;0.90;99.90
18103;DHT22;9178;51.120;6.192;2023-01-19T05:58:25;0.90;99.90
18103;DHT22;9178;51.120;6.192;2023-01-19T06:00:54;0.90;99.90
18103;DHT22;9178;51.120;6.192;2023-01-19T06:03:21;0.90;99.90
18103;DHT22;9178;51.120;6.192;2023-01-19T06:05:48;0.90;99.90
18103;DHT22;9178;51.120;6.192;2023-01-19T06:08:14;0.90;99.90
18103;DHT22;9178;51.120;6.192;2023-01-19T06:10:41;0.80;99.90
18103;DHT22;9178;51.120;6.192;2023-01-19T06:13:08;0.90;99.90
18103;DHT22;9178;51.120;6.192;2023-01-19T06:15:35;0.90;99.90
18103;DHT22;9178;51.120;6.192;2023-01-19T06:18:04;0.90;99.90
18103;DHT22;9178;51.120;6.192;2023-01-19T06:20:30;0.80;99.90
18103;DHT22;9178;51.120;6.192;2023-01-19T06:22:57;0.90;99.90
18103;DHT22;9178;51.120;6.192;2023-01-19T06:25:24;0.90;99.90
18103;DHT22;9178;51.120;6.192;2023-01-19T06:27:51;0.90;99.90
18103;DHT22;9178;51.120;6.192;2023-01-19T06:30:18;0.90;99.90
18103;DHT22;9178;51.120;6.192;2023-01-19T06:32:45;0.80;99.90
18103;DHT22;9178;51.120;6.192;2023-01-19T06:35:13;0.90;99.90
18103;DHT22;9178;51.120;6.192;2023-01-19T06:37:40;0.90;99.90
18103;DHT22;9178;51.120;6.192;2023-01-19T06:40:08;0.90;99.90
18103;DHT22;9178;51.120;6.192;2023-01-19T06:42:36;0.90;99.90
18103;DHT22;9178;51.120;6.192;2023-01-19T06:45:03;0.90;99.90
18103;DHT22;9178;51.120;6.192;2023-01-19T06:47:30;0.90;99.90
18103;DHT22;9178;51.120;6.192;2023-01-19T06:49:58;0.90;99.90
18103;DHT22;9178;51.120;6.192;2023-01-19T06:52:27;0.90;99.90
18103;DHT22;9178;51.120;6.192;2023-01-19T06:54:54;0.90;99.90
18103;DHT22;9178;51.120;6.192;2023-01-19T06:57:21;0.90;99.90
18103;DHT22;9178;51.120;6.192;2023-01-19T06:59:48;0.90;99.90
18103;DHT22;9178;51.120;6.192;2023-01-19T07:02:14;0.90;99.90
18103;DHT22;9178;51.120;6.192;2023-01-19T07:04:44;0.90;99.90
18103;DHT22;9178;51.120;6.192;2023-01-19T07:07:11;0.90;99.90
18103;DHT22;9178;51.120;6.192;2023-01-19T07:09:39;0.90;99.90
18103;DHT22;9178;51.120;6.192;2023-01-19T07:12:06;0.90;99.90
18103;DHT22;9178;51.120;6.192;2023-01-19T07:14:33;0.90;99.90
18103;DHT22;9178;51.120;6.192;2023-01-19T07:17:00;0.90;99.90
18103;DHT22;9178;51.120;6.192;2023-01-19T07:19:30;0.90;99.90
18103;DHT22;9178;51.120;6.192;2023-01-19T07:21:59;0.90;99.90
18103;DHT22;9178;51.120;6.192;2023-01-19T07:24:26;1.00;99.90
18103;DHT22;9178;51.120;6.192;2023-01-19T07:26:56;1.00;99.90
18103;DHT22;9178;51.120;6.192;2023-01-19T07:29:24;1.00;99.90
18103;DHT22;9178;51.120;6.192;2023-01-19T07:31:51;1.00;99.90
18103;DHT22;9178;51.120;6.192;2023-01-19T07:34:19;1.00;99.90
18103;DHT22;9178;51.120;6.192;2023-01-19T07:36:46;1.00;99.90
18103;DHT22;9178;51.120;6.192;2023-01-19T07:39:13;1.00;99.90
18103;DHT22;9178;51.120;6.192;2023-01-19T07:41:40;1.00;99.90
18103;DHT22;9178;51.120;6.192;2023-01-19T07:44:08;1.00;99.90
18103;DHT22;9178;51.120;6.192;2023-01-19T07:46:35;1.00;99.90
18103;DHT22;9178;51.120;6.192;2023-01-19T07:49:02;1.00;99.90
18103;DHT22;9178;51.120;6.192;2023-01-19T07:51:29;1.00;99.90
18103;DHT22;9178;51.120;6.192;2023-01-19T07:53:56;1.10;99.90
18103;DHT22;9178;51.120;6.192;2023-01-19T07:56:22;1.10;99.90
18103;DHT22;9178;51.120;6.192;2023-01-19T07:58:52;1.10;99.90
18103;DHT22;9178;51.120;6.192;2023-01-19T08:01:20;1.10;99.90
18103;DHT22;9178;51.120;6.192;2023-01-19T08:03:47;1.10;99.90
18103;DHT22;9178;51.120;6.192;2023-01-19T08:06:19;1.10;99.90
18103;DHT22;9178;51.120;6.192;2023-01-19T08:08:46;1.10;99.90
18103;DHT22;9178;51.120;6.192;2023-01-19T08:11:13;1.10;99.90
18103;DHT22;9178;51.120;6.192;2023-01-19T08:13:40;1.10;99.90
18103;DHT22;9178;51.120;6.192;2023-01-19T08:16:08;1.20;99.90
18103;DHT22;9178;51.120;6.192;2023-01-19T08:18:38;1.20;99.90
18103;DHT22;9178;51.120;6.192;2023-01-19T08:21:05;1.20;99.90
18103;DHT22;9178;51.120;6.192;2023-01-19T08:23:32;1.20;99.90
18103;DHT22;9178;51.120;6.192;2023-01-19T08:25:59;1.20;99.90
18103;DHT22;9178;51.120;6.192;2023-01-19T08:28:26;1.30;99.90
18103;DHT22;9178;51.120;6.192;2023-01-19T08:30:52;1.30;99.90
18103;DHT22;9178;51.120;6.192;2023-01-19T08:33:20;1.30;99.90
18103;DHT22;9178;51.120;6.192;2023-01-19T08:35:50;1.30;99.90
18103;DHT22;9178;51.120;6.192;2023-01-19T08:38:18;1.30;99.90
18103;DHT22;9178;51.120;6.192;2023-01-19T08:40:45;1.30;99.90
18103;DHT22;9178;51.120;6.192;2023-01-19T08:43:13;1.40;99.90
18103;DHT22;9178;51.120;6.192;2023-01-19T08:45:42;1.40;99.90
18103;DHT22;9178;51.120;6.192;2023-01-19T08:48:13;1.40;99.90
18103;DHT22;9178;51.120;6.192;2023-01-19T08:50:40;1.40;99.90
18103;DHT22;9178;51.120;6.192;2023-01-19T08:53:09;1.40;99.90
18103;DHT22;9178;51.120;6.192;2023-01-19T08:55:36;1.40;99.90
18103;DHT22;9178;51.120;6.192;2023-01-19T08:58:04;1.50;99.90
18103;DHT22;9178;51.120;6.192;2023-01-19T09:00:33;1.50;99.90
18103;DHT22;9178;51.120;6.192;2023-01-19T09:03:02;1.50;99.90
18103;DHT22;9178;51.120;6.192;2023-01-19T09:05:31;1.50;99.90
18103;DHT22;9178;51.120;6.192;2023-01-19T09:08:00;1.50;99.90
18103;DHT22;9178;51.120;6.192;2023-01-19T09:10:29;1.50;99.90
18103;DHT22;9178;51.120;6.192;2023-01-19T09:13:00;1.50;99.90
18103;DHT22;9178;51.120;6.192;2023-01-19T09:15:28;1.50;99.90
18103;DHT22;9178;51.120;6.192;2023-01-19T09:17:55;1.50;99.90
18103;DHT22;9178;51.120;6.192;2023-01-19T09:20:22;1.60;99.90
18103;DHT22;9178;51.120;6.192;2023-01-19T09:22:49;1.60;99.90
18103;DHT22;9178;51.120;6.192;2023-01-19T09:25:16;1.50;99.90
18103;DHT22;9178;51.120;6.192;2023-01-19T09:27:44;1.50;99.90
18103;DHT22;9178;51.120;6.192;2023-01-19T09:30:11;1.50;99.90
18103;DHT22;9178;51.120;6.192;2023-01-19T09:32:38;1.50;99.90
18103;DHT22;9178;51.120;6.192;2023-01-19T09:35:05;1.60;99.90
18103;DHT22;9178;51.120;6.192;2023-01-19T09:37:32;1.60;99.90
18103;DHT22;9178;51.120;6.192;2023-01-19T09:39:59;1.60;99.90
18103;DHT22;9178;51.120;6.192;2023-01-19T09:42:30;1.60;99.90
18103;DHT22;9178;51.120;6.192;2023-01-19T09:45:01;1.70;99.90
18103;DHT22;9178;51.120;6.192;2023-01-19T09:47:31;1.70;99.90
18103;DHT22;9178;51.120;6.192;2023-01-19T09:50:03;1.80;99.90
18103;DHT22;9178;51.120;6.192;2023-01-19T09:52:35;1.80;99.90
18103;DHT22;9178;51.120;6.192;2023-01-19T09:55:02;1.90;99.90
18103;DHT22;9178;51.120;6.192;2023-01-19T09:57:29;1.90;99.90
18103;DHT22;9178;51.120;6.192;2023-01-19T09:59:56;1.90;99.90
18103;DHT22;9178;51.120;6.192;2023-01-19T10:02:35;1.90;99.90
18103;DHT22;9178;51.120;6.192;2023-01-19T10:05:13;2.00;99.90
18103;DHT22;9178;51.120;6.192;2023-01-19T10:08:07;2.00;99.90
18103;DHT22;9178;51.120;6.192;2023-01-19T10:10:36;2.00;99.90
18103;DHT22;9178;51.120;6.192;2023-01-19T10:13:22;2.00;99.90
18103;DHT22;9178;51.120;6.192;2023-01-19T10:15:57;2.00;99.90
18103;DHT22;9178;51.120;6.192;2023-01-19T10:18:28;2.10;99.90
18103;DHT22;9178;51.120;6.192;2023-01-19T10:21:03;2.10;99.90
18103;DHT22;9178;51.120;6.192;2023-01-19T10:23:40;2.10;99.90
18103;DHT22;9178;51.120;6.192;2023-01-19T10:26:14;2.10;99.90
18103;DHT22;9178;51.120;6.192;2023-01-19T10:28:41;2.20;99.90
18103;DHT22;9178;51.120;6.192;2023-01-19T10:31:08;2.20;99.90
18103;DHT22;9178;51.120;6.192;2023-01-19T10:33:38;2.30;99.90
18103;DHT22;9178;51.120;6.192;2023-01-19T10:36:09;2.30;99.90
18103;DHT22;9178;51.120;6.192;2023-01-19T10:38:40;2.30;99.90
18103;DHT22;9178;51.120;6.192;2023-01-19T10:41:12;2.40;99.90
18103;DHT22;9178;51.120;6.192;2023-01-19T10:43:42;2.40;99.90
18103;DHT22;9178;51.120;6.192;2023-01-19T10:46:24;2.40;99.90
18103;DHT22;9178;51.120;6.192;2023-01-19T10:48:54;2.40;99.90
18103;DHT22;9178;51.120;6.192;2023-01-19T10:51:21;2.40;99.90
18103;DHT22;9178;51.120;6.192;2023-01-19T10:53:54;2.40;99.90
18103;DHT22;9178;51.120;6.192;2023-01-19T10:56:24;2.40;99.90
18103;DHT22;9178;51.120;6.192;2023-01-19T10:58:52;2.40;99.90
18103;DHT22;9178;51.120;6.192;2023-01-19T11:01:21;2.50;99.90
18103;DHT22;9178;51.120;6.192;2023-01-19T11:03:48;2.50;99.90
18103;DHT22;9178;51.120;6.192;2023-01-19T11:06:26;2.40;99.90
18103;DHT22;9178;51.120;6.192;2023-01-19T11:09:09;2.50;99.90
18103;DHT22;9178;51.120;6.192;2023-01-19T11:11:42;2.50;99.90
18103;DHT22;9178;51.120;6.192;2023-01-19T11:14:10;2.50;99.90
18103;DHT22;9178;51.120;6.192;2023-01-19T11:16:38;2.50;99.90
18103;DHT22;9178;51.120;6.192;2023-01-19T11:19:18;2.60;99.90
18103;DHT22;9178;51.120;6.192;2023-01-19T11:21:47;2.60;99.90
18103;DHT22;9178;51.120;6.192;2023-01-19T11:24:14;2.70;99.90
18103;DHT22;9178;51.120;6.192;2023-01-19T11:26:43;2.70;99.90
18103;DHT22;9178;51.120;6.192;2023-01-19T11:29:16;2.80;99.90
18103;DHT22;9178;51.120;6.192;2023-01-19T11:31:45;2.80;99.90
18103;DHT22;9178;51.120;6.192;2023-01-19T11:34:25;2.90;99.90
18103;DHT22;9178;51.120;6.192;2023-01-19T11:36:58;2.90;99.90
18103;DHT22;9178;51.120;6.192;2023-01-19T11:39:26;2.80;99.90
18103;DHT22;9178;51.120;6.192;2023-01-19T11:41:55;2.80;99.90
18103;DHT22;9178;51.120;6.192;2023-01-19T11:44:25;2.80;99.90
18103;DHT22;9178;51.120;6.192;2023-01-19T11:46:55;2.80;99.90
18103;DHT22;9178;51.120;6.192;2023-01-19T11:49:28;2.80;99.90
18103;DHT22;9178;51.120;6.192;2023-01-19T11:52:04;2.80;99.90
18103;DHT22;9178;51.120;6.192;2023-01-19T11:54:34;2.70;99.90
18103;DHT22;9178;51.120;6.192;2023-01-19T11:57:13;2.70;99.90
18103;DHT22;9178;51.120;6.192;2023-01-19T11:59:41;2.80;99.90
18103;DHT22;9178;51.120;6.192;2023-01-19T12:02:16;2.80;99.90
18103;DHT22;9178;51.120;6.192;2023-01-19T12:04:45;2.80;99.90
18103;DHT22;9178;51.120;6.192;2023-01-19T12:07:26;2.70;99.90
18103;DHT22;9178;51.120;6.192;2023-01-19T12:10:05;2.70;99.90
18103;DHT22;9178;51.120;6.192;2023-01-19T12:12:39;2.60;99.90
18103;DHT22;9178;51.120;6.192;2023-01-19T12:15:13;2.60;99.90
18103;DHT22;9178;51.120;6.192;2023-01-19T12:17:48;2.60;99.90
18103;DHT22;9178;51.120;6.192;2023-01-19T12:20:24;2.60;99.90
18103;DHT22;9178;51.120;6.192;2023-01-19T12:23:00;2.70;99.90
18103;DHT22;9178;51.120;6.192;2023-01-19T12:25:37;2.70;99.90
18103;DHT22;9178;51.120;6.192;2023-01-19T12:28:09;2.70;99.90
18103;DHT22;9178;51.120;6.192;2023-01-19T12:30:38;2.70;99.90
18103;DHT22;9178;51.120;6.192;2023-01-19T12:33:22;2.70;99.90
18103;DHT22;9178;51.120;6.192;2023-01-19T12:35:58;2.70;99.90
18103;DHT22;9178;51.120;6.192;2023-01-19T12:38:39;2.70;99.90
18103;DHT22;9178;51.120;6.192;2023-01-19T12:41:16;2.70;99.90
18103;DHT22;9178;51.120;6.192;2023-01-19T12:43:43;2.70;99.90
18103;DHT22;9178;51.120;6.192;2023-01-19T12:46:18;2.80;99.90
18103;DHT22;9178;51.120;6.192;2023-01-19T12:48:45;2.90;99.90
18103;DHT22;9178;51.120;6.192;2023-01-19T12:51:21;2.90;99.90
18103;DHT22;9178;51.120;6.192;2023-01-19T12:53:55;2.90;99.90
18103;DHT22;9178;51.120;6.192;2023-01-19T12:56:28;3.00;99.90
18103;DHT22;9178;51.120;6.192;2023-01-19T12:58:56;3.00;99.90
18103;DHT22;9178;51.120;6.192;2023-01-19T13:01:24;2.90;99.90
18103;DHT22;9178;51.120;6.192;2023-01-19T13:03:59;2.90;99.90
18103;DHT22;9178;51.120;6.192;2023-01-19T13:09:32;2.90;99.90
18103;DHT22;9178;51.120;6.192;2023-01-19T13:12:19;2.90;99.90
18103;DHT22;9178;51.120;6.192;2023-01-19T13:14:46;2.80;99.90
18103;DHT22;9178;51.120;6.192;2023-01-19T13:17:34;2.70;99.90
18103;DHT22;9178;51.120;6.192;2023-01-19T13:20:25;2.70;99.90
18103;DHT22;9178;51.120;6.192;2023-01-19T13:26:00;2.60;99.90
18103;DHT22;9178;51.120;6.192;2023-01-19T13:28:33;2.60;99.90
18103;DHT22;9178;51.120;6.192;2023-01-19T13:31:01;2.60;99.90
18103;DHT22;9178;51.120;6.192;2023-01-19T13:33:36;2.60;99.90
18103;DHT22;9178;51.120;6.192;2023-01-19T13:36:15;2.60;99.90
18103;DHT22;9178;51.120;6.192;2023-01-19T13:38:44;2.60;99.90
18103;DHT22;9178;51.120;6.192;2023-01-19T13:41:14;2.50;99.90
18103;DHT22;9178;51.120;6.192;2023-01-19T13:43:42;2.50;99.90
18103;DHT22;9178;51.120;6.192;2023-01-19T13:46:10;2.40;99.90
18103;DHT22;9178;51.120;6.192;2023-01-19T13:48:39;2.40;99.90
18103;DHT22;9178;51.120;6.192;2023-01-19T13:51:19;2.40;99.90
18103;DHT22;9178;51.120;6.192;2023-01-19T13:53:54;2.40;99.90
18103;DHT22;9178;51.120;6.192;2023-01-19T13:56:25;2.40;99.90
18103;DHT22;9178;51.120;6.192;2023-01-19T13:58:57;2.40;99.90
18103;DHT22;9178;51.120;6.192;2023-01-19T14:01:24;2.40;99.90
18103;DHT22;9178;51.120;6.192;2023-01-19T14:03:52;2.30;99.90
18103;DHT22;9178;51.120;6.192;2023-01-19T14:06:29;2.30;99.90
18103;DHT22;9178;51.120;6.192;2023-01-19T14:09:14;2.30;99.90
18103;DHT22;9178;51.120;6.192;2023-01-19T14:12:03;2.40;99.90
18103;DHT22;9178;51.120;6.192;2023-01-19T14:14:30;2.40;99.90
18103;DHT22;9178;51.120;6.192;2023-01-19T14:16:57;2.40;99.90
18103;DHT22;9178;51.120;6.192;2023-01-19T14:19:24;2.40;99.90
18103;DHT22;9178;51.120;6.192;2023-01-19T14:21:59;2.40;99.90
18103;DHT22;9178;51.120;6.192;2023-01-19T14:24:27;2.40;99.90
18103;DHT22;9178;51.120;6.192;2023-01-19T14:27:09;2.50;99.90
18103;DHT22;9178;51.120;6.192;2023-01-19T14:29:38;2.50;99.90
18103;DHT22;9178;51.120;6.192;2023-01-19T14:32:12;2.50;99.90
18103;DHT22;9178;51.120;6.192;2023-01-19T14:34:41;2.60;99.90
18103;DHT22;9178;51.120;6.192;2023-01-19T14:37:21;2.60;99.90
18103;DHT22;9178;51.120;6.192;2023-01-19T14:39:56;2.50;99.90
18103;DHT22;9178;51.120;6.192;2023-01-19T14:42:27;2.50;99.90
18103;DHT22;9178;51.120;6.192;2023-01-19T14:44:58;2.50;99.90
18103;DHT22;9178;51.120;6.192;2023-01-19T14:47:34;2.50;99.90
18103;DHT22;9178;51.120;6.192;2023-01-19T14:50:05;2.50;99.90
18103;DHT22;9178;51.120;6.192;2023-01-19T14:52:36;2.50;99.90
18103;DHT22;9178;51.120;6.192;2023-01-19T14:55:05;2.50;99.90
18103;DHT22;9178;51.120;6.192;2023-01-19T14:57:34;2.40;99.90
18103;DHT22;9178;51.120;6.192;2023-01-19T15:00:13;2.40;99.90
18103;DHT22;9178;51.120;6.192;2023-01-19T15:02:41;2.50;99.90
18103;DHT22;9178;51.120;6.192;2023-01-19T15:05:08;2.40;99.90
18103;DHT22;9178;51.120;6.192;2023-01-19T15:07:37;2.40;99.90
18103;DHT22;9178;51.120;6.192;2023-01-19T15:10:11;2.40;99.90
18103;DHT22;9178;51.120;6.192;2023-01-19T15:12:41;2.40;99.90
18103;DHT22;9178;51.120;6.192;2023-01-19T15:15:13;2.40;99.90
18103;DHT22;9178;51.120;6.192;2023-01-19T15:17:40;2.40;99.90
18103;DHT22;9178;51.120;6.192;2023-01-19T15:20:13;2.40;99.90
18103;DHT22;9178;51.120;6.192;2023-01-19T15:22:41;2.40;99.90
18103;DHT22;9178;51.120;6.192;2023-01-19T15:25:11;2.40;99.90
18103;DHT22;9178;51.120;6.192;2023-01-19T15:27:38;2.40;99.90
18103;DHT22;9178;51.120;6.192;2023-01-19T15:30:12;2.40;99.90
18103;DHT22;9178;51.120;6.192;2023-01-19T15:32:39;2.30;99.90
18103;DHT22;9178;51.120;6.192;2023-01-19T15:35:12;2.30;99.90
18103;DHT22;9178;51.120;6.192;2023-01-19T15:37:39;2.20;99.90
18103;DHT22;9178;51.120;6.192;2023-01-19T15:40:07;2.20;99.90
18103;DHT22;9178;51.120;6.192;2023-01-19T15:42:34;2.20;99.90
18103;DHT22;9178;51.120;6.192;2023-01-19T15:45:01;2.20;99.90
18103;DHT22;9178;51.120;6.192;2023-01-19T15:47:29;2.20;99.90
18103;DHT22;9178;51.120;6.192;2023-01-19T15:49:56;2.20;99.90
18103;DHT22;9178;51.120;6.192;2023-01-19T15:52:23;2.20;99.90
18103;DHT22;9178;51.120;6.192;2023-01-19T15:54:49;2.20;99.90
18103;DHT22;9178;51.120;6.192;2023-01-19T15:57:16;2.20;99.90
18103;DHT22;9178;51.120;6.192;2023-01-19T15:59:43;2.20;99.90
18103;DHT22;9178;51.120;6.192;2023-01-19T16:02:10;2.20;99.90
18103;DHT22;9178;51.120;6.192;2023-01-19T16:04:38;2.10;99.90
18103;DHT22;9178;51.120;6.192;2023-01-19T16:07:04;2.10;99.90
18103;DHT22;9178;51.120;6.192;2023-01-19T16:09:31;2.10;99.90
18103;DHT22;9178;51.120;6.192;2023-01-19T16:11:58;2.10;99.90
18103;DHT22;9178;51.120;6.192;2023-01-19T16:14:25;2.10;99.90
18103;DHT22;9178;51.120;6.192;2023-01-19T16:16:52;2.10;99.90
18103;DHT22;9178;51.120;6.192;2023-01-19T16:19:18;2.10;99.90
18103;DHT22;9178;51.120;6.192;2023-01-19T16:21:47;2.10;99.90
18103;DHT22;9178;51.120;6.192;2023-01-19T16:24:13;2.00;99.90